Impacts METAR Board
IDs:

KCVG - Cincinnati Intl, KY, US

Updated at: 2000 UTC 08 Feb 2023
Potential Impact None Slight Moderate High
Time 08/08Z 08/09Z 08/10Z 08/11Z 08/12Z 08/13Z 08/14Z 08/15Z 08/16Z 08/17Z 08/18Z 08/19Z 08/20Z
Temp37 35 35 36 36 33 37 40 43 46 50 51 52
Dewpt35 34 33 33 33 32 34 35 33 33 33 32 33
Altim30.24 30.25 30.26 30.28 30.28 30.30 30.30 30.30 30.30 30.29 30.26 30.22 30.20
VIS9 8 7 9 8 5 6 8 10 10 10 10 10
CIG-- -- -- -- -- 250 300 -- 300 300 -- 100 100
CoverFEWFEWSCTFEWFEWBKNBKNSCTBKNBKNSCTOVCOVC
FltCatVFRVFRVFRVFRVFRMVFRVFRVFRVFRVFRVFRVFRVFR
WX----------BRBR------------
WDir35010106070120909090100150130120
WSpd8 5 8 5 7 4 6 8 4 3 4 6 6
WGst-- -- -- -- -- -- -- -- -- -- -- -- --
Raw hourly METARs
KCVG 080752Z 35008KT 9SM FEW080 03/02 A3024 RMK AO2 SLP243 T00280017
KCVG 080852Z 01005KT 8SM FEW100 02/01 A3025 RMK AO2 SLP245 T00170011 51014
KCVG 080952Z 01008KT 7SM SCT060 02/01 A3026 RMK AO2 SLP249 T00170006
KCVG 081052Z 06005KT 9SM FEW060 02/01 A3028 RMK AO2 SLP254 T00220006
KCVG 081152Z 07007KT 8SM FEW065 02/01 A3028 RMK AO2 SLP256 70003 T00220006 10083 20011 51011
KCVG 081252Z 12004KT 5SM BR FEW019 SCT075 BKN250 01/00 A3030 RMK AO2 SLP263 VIRGA SE T00060000
KCVG 081352Z 09006KT 6SM BR FEW075 SCT230 BKN300 03/01 A3030 RMK AO2 SLP261 T00280011
KCVG 081452Z 09008KT 8SM FEW070 SCT300 04/02 A3030 RMK AO2 SLP263 T00440017 51007
KCVG 081552Z 09004KT 10SM FEW070 SCT160 BKN300 06/01 A3030 RMK AO2 SLP261 T00610006
KCVG 081652Z 10003KT 10SM BKN300 08/01 A3029 RMK AO2 SLP258 T00780006
KCVG 081752Z 15004KT 10SM FEW100 SCT220 SCT300 10/01 A3026 RMK AO2 SLP248 T01000006 10100 20006 58014
KCVG 081852Z 13006KT 10SM BKN100 OVC210 11/00 A3022 RMK AO2 SLP234 T01060000
KCVG 081952Z 12006KT 10SM BKN100 OVC250 11/01 A3020 RMK AO2 SLP227 T01110006



Page loaded:  20:13 UTC  |   12:13 PM Pacific  |   01:13 PM Mountain  |   02:13 PM Central  |   03:13 PM Eastern

 

ADVISORIES

FORECASTS

FORECASTS

OBSERVATIONS

USER TOOLS

ABOUT US